Time;durP1;ratioP1;P1;durP2;ratioP2;P2;SDS_P1;SDS_P2;PMS_P1;PMS_P2;Temp;Humidity;BMP_temperature;BMP_pressure;BME280_temperature;BME280_humidity;BME280_pressure;Samples;Min_cycle;Max_cycle;Signal;HPM_P1;HPM_P2
2022/07/18 00:01:08;;;;;;;;;;;;;;;14.29;100.00;101919.41;5042499;28;19924;-85
2022/07/18 00:03:42;;;;;;;;;;;;;;;14.28;100.00;101913.13;5043012;28;19925;-85
2022/07/18 00:06:15;;;;;;;;;;;;;;;14.24;100.00;101901.06;5042394;28;19936;-86
2022/07/18 00:08:48;;;;;;;;;;;;;;;14.21;100.00;101898.03;5046078;28;19925;-85
2022/07/18 00:11:21;;;;;;;;;;;;;;;14.23;100.00;101902.16;5034725;28;19925;-86
2022/07/18 00:13:54;;;;;;;;;;;;;;;14.25;100.00;101908.19;5044609;28;20387;-85
2022/07/18 00:16:27;;;;;;;;;;;;;;;14.23;100.00;101906.81;5040646;28;20318;-85
2022/07/18 00:19:02;;;;;;;;;;;;;;;14.24;100.00;101897.53;5041513;28;19925;-84
2022/07/18 00:21:35;;;;;;;;;;;;;;;14.21;100.00;101892.56;5040890;28;19929;-85
2022/07/18 00:24:08;;;;;;;;;;;;;;;14.16;100.00;101895.34;5047013;28;19931;-85
2022/07/18 00:26:41;;;;;;;;;;;;;;;14.11;100.00;101890.66;5038533;28;19929;-84
2022/07/18 00:29:14;;;;;;;;;;;;;;;14.08;100.00;101893.97;5042579;28;19936;-86
2022/07/18 00:31:47;;;;;;;;;;;;;;;14.04;100.00;101884.66;5042431;28;19936;-84
2022/07/18 00:34:16;;;;;;;;;;;;;;;13.99;100.00;101882.75;5045628;28;19933;-85
2022/07/18 00:36:49;;;;;;;;;;;;;;;13.94;100.00;101885.47;5048845;28;19932;-84
2022/07/18 00:39:22;;;;;;;;;;;;;;;13.99;100.00;101885.47;5044017;28;20390;-86
2022/07/18 00:41:55;;;;;;;;;;;;;;;13.93;100.00;101890.13;5040760;28;19924;-85
2022/07/18 00:44:29;;;;;;;;;;;;;;;13.97;100.00;101887.66;5038171;28;19932;-85
2022/07/18 00:47:02;;;;;;;;;;;;;;;13.87;100.00;101883.00;5041894;28;19935;-85
2022/07/18 00:49:32;;;;;;;;;;;;;;;13.89;100.00;101879.97;5050832;28;20309;-85
2022/07/18 00:52:05;;;;;;;;;;;;;;;13.87;100.00;101884.94;5046904;28;19929;-86
2022/07/18 00:54:38;;;;;;;;;;;;;;;13.90;100.00;101887.91;5040949;28;19929;-83
2022/07/18 00:57:12;;;;;;;;;;;;;;;13.87;100.00;101887.66;5046765;28;20320;-85
2022/07/18 01:02:30;;;;;;;;;;;;;;;13.78;100.00;101887.34;5048397;28;19925;-84
2022/07/18 01:05:05;;;;;;;;;;;;;;;13.80;100.00;101882.44;5051138;28;19929;-86
2022/07/18 01:07:38;;;;;;;;;;;;;;;13.74;100.00;101884.38;5040403;28;19952;-86
2022/07/18 01:10:06;;;;;;;;;;;;;;;13.77;100.00;101886.53;5041482;28;19929;-86
2022/07/18 01:12:39;;;;;;;;;;;;;;;13.83;100.00;101886.56;5041672;28;19925;-85
2022/07/18 01:15:12;;;;;;;;;;;;;;;13.86;100.00;101886.00;5038651;28;19936;-85
2022/07/18 01:17:40;;;;;;;;;;;;;;;13.69;100.00;101883.53;5043005;28;19936;-85
2022/07/18 01:20:15;;;;;;;;;;;;;;;13.74;100.00;101880.78;5055140;28;19926;-84
2022/07/18 01:22:49;;;;;;;;;;;;;;;13.76;100.00;101881.34;5040131;28;19929;-84
2022/07/18 01:25:17;;;;;;;;;;;;;;;13.59;100.00;101884.34;5035538;28;19926;-85
2022/07/18 01:27:50;;;;;;;;;;;;;;;13.50;100.00;101880.50;5035782;28;19936;-85
2022/07/18 01:30:23;;;;;;;;;;;;;;;13.28;100.00;101884.22;5049425;28;19929;-84
2022/07/18 01:32:57;;;;;;;;;;;;;;;13.38;100.00;101887.03;5046472;28;20266;-85
2022/07/18 01:35:30;;;;;;;;;;;;;;;13.37;100.00;101888.09;5044144;28;20289;-84
2022/07/18 01:38:05;;;;;;;;;;;;;;;13.39;100.00;101891.38;5041913;28;19931;-85
2022/07/18 01:40:38;;;;;;;;;;;;;;;13.16;100.00;101886.34;5041331;28;19929;-85
2022/07/18 01:43:11;;;;;;;;;;;;;;;13.29;100.00;101885.88;5046070;28;20389;-84
2022/07/18 01:45:44;;;;;;;;;;;;;;;13.25;100.00;101876.56;5043891;28;20392;-85
2022/07/18 01:48:11;;;;;;;;;;;;;;;13.15;100.00;101880.09;5042263;28;19939;-84
2022/07/18 01:50:45;;;;;;;;;;;;;;;13.12;100.00;101882.50;5050493;28;19925;-85
2022/07/18 01:53:19;;;;;;;;;;;;;;;13.19;100.00;101883.13;5045040;28;19929;-84
2022/07/18 01:55:52;;;;;;;;;;;;;;;13.19;100.00;101883.13;5042420;28;20452;-84
2022/07/18 01:58:25;;;;;;;;;;;;;;;13.23;100.00;101886.94;5038768;28;20393;-84
2022/07/18 02:00:59;;;;;;;;;;;;;;;13.22;100.00;101888.03;5044876;28;19925;-84
2022/07/18 02:03:31;;;;;;;;;;;;;;;13.20;100.00;101887.47;5036248;28;19936;-85
2022/07/18 02:06:04;;;;;;;;;;;;;;;13.20;100.00;101887.47;5043789;28;19925;-83
2022/07/18 02:08:34;;;;;;;;;;;;;;;13.17;100.00;101888.81;5042790;28;19929;-84
2022/07/18 02:11:07;;;;;;;;;;;;;;;13.01;100.00;101877.03;5045591;28;19933;-84
2022/07/18 02:13:40;;;;;;;;;;;;;;;13.09;100.00;101875.66;5039357;28;20309;-85
2022/07/18 02:16:13;;;;;;;;;;;;;;;12.98;100.00;101877.56;5040744;28;19929;-85
2022/07/18 02:18:46;;;;;;;;;;;;;;;13.02;100.00;101875.09;5038313;28;19929;-86
2022/07/18 02:21:18;;;;;;;;;;;;;;;12.80;100.00;101872.53;5058838;28;19932;-84
2022/07/18 02:23:54;;;;;;;;;;;;;;;12.79;100.00;101871.72;5039729;28;20278;-84
2022/07/18 02:26:27;;;;;;;;;;;;;;;12.75;100.00;101868.69;5040250;28;20241;-85
2022/07/18 02:29:00;;;;;;;;;;;;;;;12.66;100.00;101872.19;5035829;28;19932;-83
2022/07/18 02:31:33;;;;;;;;;;;;;;;12.68;100.00;101870.03;5043474;28;19929;-85
2022/07/18 02:34:09;;;;;;;;;;;;;;;12.67;100.00;101868.38;5047866;28;19925;-84
2022/07/18 02:36:43;;;;;;;;;;;;;;;12.66;100.00;101878.47;5047791;28;20349;-85
2022/07/18 02:39:17;;;;;;;;;;;;;;;12.73;100.00;101872.78;5051496;28;19932;-85
2022/07/18 02:41:50;;;;;;;;;;;;;;;12.78;100.00;101866.53;5041434;28;20370;-84
2022/07/18 02:44:23;;;;;;;;;;;;;;;12.86;100.00;101861.38;5046113;28;19928;-84
2022/07/18 02:46:56;;;;;;;;;;;;;;;12.87;100.00;101863.03;5041333;28;19932;-84
2022/07/18 02:49:29;;;;;;;;;;;;;;;12.95;100.00;101860.88;5041531;28;19933;-84
2022/07/18 02:52:03;;;;;;;;;;;;;;;12.79;100.00;101854.50;5048176;28;19929;-84
2022/07/18 02:54:38;;;;;;;;;;;;;;;12.85;100.00;101846.06;5046038;28;19924;-84
2022/07/18 02:57:11;;;;;;;;;;;;;;;12.78;100.00;101850.16;5039012;28;20396;-84
2022/07/18 02:59:45;;;;;;;;;;;;;;;12.68;100.00;101853.66;5044906;28;20035;-84
2022/07/18 03:02:18;;;;;;;;;;;;;;;12.75;100.00;101854.22;5045951;28;19933;-84
2022/07/18 03:04:51;;;;;;;;;;;;;;;12.81;100.00;101861.34;5039083;28;19925;-85
2022/07/18 03:07:24;;;;;;;;;;;;;;;12.89;100.00;101846.38;5043963;28;19932;-84
2022/07/18 03:09:53;;;;;;;;;;;;;;;12.77;100.00;101857.50;5041754;28;19928;-83
2022/07/18 03:12:26;;;;;;;;;;;;;;;12.79;100.00;101863.53;5042080;28;19964;-84
2022/07/18 03:14:59;;;;;;;;;;;;;;;12.82;100.00;101857.53;5045489;28;20428;-83
2022/07/18 03:17:32;;;;;;;;;;;;;;;12.86;100.00;101866.03;5043912;28;20301;-83
2022/07/18 03:20:06;;;;;;;;;;;;;;;12.77;100.00;101862.97;5040066;28;20301;-84
2022/07/18 03:22:35;;;;;;;;;;;;;;;12.81;100.00;101858.63;5044046;28;19929;-84
2022/07/18 03:25:04;;;;;;;;;;;;;;;12.86;100.00;101857.84;5046727;28;19927;-84
2022/07/18 03:27:37;;;;;;;;;;;;;;;12.95;100.00;101863.59;5043537;28;19936;-85
2022/07/18 03:30:11;;;;;;;;;;;;;;;12.89;100.00;101866.31;5036452;28;19924;-84
2022/07/18 03:32:44;;;;;;;;;;;;;;;12.79;100.00;101858.06;5046861;28;19925;-85
2022/07/18 03:35:12;;;;;;;;;;;;;;;12.88;100.00;101859.19;5047830;28;19929;-85
2022/07/18 03:37:40;;;;;;;;;;;;;;;12.88;100.00;101852.91;5035958;28;19932;-84
2022/07/18 03:40:14;;;;;;;;;;;;;;;12.88;100.00;101856.47;5034840;28;20286;-85
2022/07/18 03:42:47;;;;;;;;;;;;;;;12.90;100.00;101854.28;5042230;28;19933;-85
2022/07/18 03:45:20;;;;;;;;;;;;;;;12.86;100.00;101850.44;5040799;28;19925;-85
2022/07/18 03:47:54;;;;;;;;;;;;;;;12.92;100.00;101852.09;5045540;28;19928;-85
2022/07/18 03:50:28;;;;;;;;;;;;;;;12.99;100.00;101843.66;5043034;28;20419;-84
2022/07/18 03:53:01;;;;;;;;;;;;;;;13.10;100.00;101844.53;5041971;28;19940;-84
2022/07/18 03:55:30;;;;;;;;;;;;;;;13.19;100.00;101836.66;5042569;28;20405;-85
2022/07/18 03:58:03;;;;;;;;;;;;;;;13.27;100.00;101836.94;5038291;28;19924;-85
2022/07/18 04:00:36;;;;;;;;;;;;;;;13.37;100.00;101838.09;5035146;28;20209;-85
2022/07/18 04:03:09;;;;;;;;;;;;;;;13.50;100.00;101832.06;5043664;28;19933;-85
2022/07/18 04:05:37;;;;;;;;;;;;;;;13.54;100.00;101832.38;5054639;28;19928;-84
2022/07/18 04:08:10;;;;;;;;;;;;;;;13.61;100.00;101835.66;5052733;28;19924;-84
2022/07/18 04:10:40;;;;;;;;;;;;;;;13.65;100.00;101842.22;5052438;28;19925;-84
2022/07/18 04:13:08;;;;;;;;;;;;;;;13.75;100.00;101836.78;5053439;28;19929;-84
2022/07/18 04:15:41;;;;;;;;;;;;;;;13.84;100.00;101833.50;5053693;28;20297;-84
2022/07/18 04:18:14;;;;;;;;;;;;;;;13.86;100.00;101832.09;5054191;28;19947;-84
2022/07/18 04:20:47;;;;;;;;;;;;;;;13.94;100.00;101847.16;5054162;28;19925;-85
2022/07/18 04:23:20;;;;;;;;;;;;;;;13.95;100.00;101838.66;5054455;28;19928;-85
2022/07/18 04:25:50;;;;;;;;;;;;;;;13.99;100.00;101841.69;5054623;28;20298;-84
2022/07/18 04:28:22;;;;;;;;;;;;;;;14.02;100.00;101846.59;5052826;28;19929;-85
2022/07/18 04:30:55;;;;;;;;;;;;;;;14.02;100.00;101843.88;5053226;28;19925;-85
2022/07/18 04:33:28;;;;;;;;;;;;;;;14.03;100.00;101842.78;5054411;28;19925;-85
2022/07/18 04:36:01;;;;;;;;;;;;;;;14.05;100.00;101840.56;5040413;28;19925;-85
2022/07/18 04:38:37;;;;;;;;;;;;;;;14.10;100.00;101840.56;5035777;28;19929;-86
2022/07/18 04:41:06;;;;;;;;;;;;;;;14.11;100.00;101839.50;5034492;28;19925;-86
2022/07/18 04:43:39;;;;;;;;;;;;;;;14.18;100.00;101838.38;5034330;28;19929;-86
2022/07/18 04:46:12;;;;;;;;;;;;;;;14.23;100.00;101824.69;5035871;28;20282;-85
2022/07/18 04:48:45;;;;;;;;;;;;;;;14.27;100.00;101820.31;5035569;28;19925;-84
2022/07/18 04:51:18;;;;;;;;;;;;;;;14.37;100.00;101817.53;5034746;28;19925;-86
2022/07/18 04:53:51;;;;;;;;;;;;;;;14.36;100.00;101821.38;5035384;28;19929;-85
2022/07/18 04:56:25;;;;;;;;;;;;;;;14.44;100.00;101815.34;5033710;28;19940;-85
2022/07/18 04:58:58;;;;;;;;;;;;;;;14.48;100.00;101809.28;5034129;28;19929;-84
2022/07/18 05:01:26;;;;;;;;;;;;;;;14.51;100.00;101806.00;5046545;28;19932;-85
2022/07/18 05:03:59;;;;;;;;;;;;;;;14.53;100.00;101803.78;5054359;28;20378;-85
2022/07/18 05:06:27;;;;;;;;;;;;;;;14.57;100.00;101807.59;5053766;28;19925;-86
2022/07/18 05:08:55;;;;;;;;;;;;;;;14.54;100.00;101809.00;5053864;28;19925;-86
2022/07/18 05:11:29;;;;;;;;;;;;;;;14.56;100.00;101814.19;5055123;28;20385;-85
2022/07/18 05:13:57;;;;;;;;;;;;;;;14.60;100.00;101810.63;5053308;28;19932;-85
2022/07/18 05:16:25;;;;;;;;;;;;;;;14.68;100.00;101814.75;5054452;28;19932;-84
2022/07/18 05:18:58;;;;;;;;;;;;;;;14.75;100.00;101812.50;5054962;28;19924;-86
2022/07/18 05:21:31;;;;;;;;;;;;;;;14.93;100.00;101823.97;5034664;28;19936;-86
2022/07/18 05:24:04;;;;;;;;;;;;;;;15.18;100.00;101813.94;5034914;28;19932;-86
2022/07/18 05:26:38;;;;;;;;;;;;;;;15.17;100.00;101815.88;5040056;28;19925;-86
2022/07/18 05:29:12;;;;;;;;;;;;;;;15.10;100.00;101810.69;5033575;28;19930;-85
2022/07/18 05:31:45;;;;;;;;;;;;;;;15.16;100.00;101813.41;5037914;28;20396;-85
2022/07/18 05:34:18;;;;;;;;;;;;;;;15.17;100.00;101813.13;5048730;28;19936;-86
2022/07/18 05:36:46;;;;;;;;;;;;;;;15.24;100.00;101810.88;5059489;28;20406;-84
2022/07/18 05:39:19;;;;;;;;;;;;;;;15.31;100.00;101816.06;5059903;28;19934;-85
2022/07/18 05:41:48;;;;;;;;;;;;;;;15.35;100.00;101814.38;5053592;28;19925;-85
2022/07/18 05:44:21;;;;;;;;;;;;;;;15.47;100.00;101816.78;5054162;28;19936;-85
2022/07/18 05:46:54;;;;;;;;;;;;;;;15.52;100.00;101808.50;5054722;28;19924;-86
2022/07/18 05:49:27;;;;;;;;;;;;;;;15.62;100.00;101815.84;5052134;28;20316;-86
2022/07/18 05:51:55;;;;;;;;;;;;;;;15.70;100.00;101820.72;5044131;28;20289;-85
2022/07/18 05:54:28;;;;;;;;;;;;;;;15.79;100.00;101820.94;5045442;28;20514;-87
2022/07/18 05:56:57;;;;;;;;;;;;;;;15.91;100.00;101817.81;5044663;28;19936;-88
2022/07/18 05:59:30;;;;;;;;;;;;;;;15.92;100.00;101822.22;5046814;28;19943;-87
2022/07/18 06:01:58;;;;;;;;;;;;;;;16.04;100.00;101825.41;5037057;28;19925;-86
2022/07/18 06:04:31;;;;;;;;;;;;;;;16.12;100.00;101823.97;5051312;28;19924;-88
2022/07/18 06:07:04;;;;;;;;;;;;;;;16.15;100.00;101821.44;5038004;28;19933;-85
2022/07/18 06:09:32;;;;;;;;;;;;;;;16.23;100.00;101821.94;5043434;28;19925;-89
2022/07/18 06:12:02;;;;;;;;;;;;;;;16.28;100.00;101816.38;5038525;28;19936;-86
2022/07/18 06:14:35;;;;;;;;;;;;;;;16.37;100.00;101811.88;5036469;28;19924;-86
2022/07/18 06:17:03;;;;;;;;;;;;;;;16.46;100.00;101818.38;5033237;28;19932;-85
2022/07/18 06:19:36;;;;;;;;;;;;;;;16.49;100.00;101817.78;5043052;28;20312;-86
2022/07/18 06:22:09;;;;;;;;;;;;;;;16.59;100.00;101816.03;5037152;28;19936;-84
2022/07/18 06:24:43;;;;;;;;;;;;;;;16.57;100.00;101823.75;5039257;28;19925;-84
2022/07/18 06:27:18;;;;;;;;;;;;;;;16.60;100.00;101831.41;5026244;28;20285;-86
2022/07/18 06:29:51;;;;;;;;;;;;;;;16.56;100.00;101827.59;5035563;28;19925;-85
2022/07/18 06:32:19;;;;;;;;;;;;;;;16.48;100.00;101826.34;5029194;28;19940;-85
2022/07/18 06:34:52;;;;;;;;;;;;;;;16.52;100.00;101821.06;5032877;28;20579;-89
2022/07/18 06:37:25;;;;;;;;;;;;;;;16.57;100.00;101829.25;5032385;28;19933;-87
2022/07/18 06:39:58;;;;;;;;;;;;;;;16.60;100.00;101824.00;5031310;28;19933;-84
2022/07/18 06:42:32;;;;;;;;;;;;;;;16.71;100.00;101807.38;5030944;28;19932;-87
2022/07/18 06:45:00;;;;;;;;;;;;;;;16.83;100.00;101800.34;5034100;28;19933;-86
2022/07/18 06:47:28;;;;;;;;;;;;;;;16.94;100.00;101792.00;5029984;28;19944;-84
2022/07/18 06:49:56;;;;;;;;;;;;;;;16.93;100.00;101799.44;5027420;28;19933;-87
2022/07/18 06:52:29;;;;;;;;;;;;;;;16.96;100.00;101798.03;5032099;28;19929;-85
2022/07/18 06:54:57;;;;;;;;;;;;;;;16.92;100.00;101786.78;5029529;28;19945;-85
2022/07/18 06:57:25;;;;;;;;;;;;;;;16.87;100.00;101797.00;5028882;28;19933;-86
2022/07/18 07:00:00;;;;;;;;;;;;;;;16.83;100.00;101799.53;5024954;28;19944;-84
2022/07/18 07:02:33;;;;;;;;;;;;;;;16.80;100.00;101795.41;5029716;28;21716;-83
2022/07/18 07:05:01;;;;;;;;;;;;;;;16.82;100.00;101795.13;5027084;28;19933;-84
2022/07/18 07:07:29;;;;;;;;;;;;;;;17.05;100.00;101800.91;5024364;28;19940;-84
2022/07/18 07:10:02;;;;;;;;;;;;;;;17.26;100.00;101796.78;5024909;28;21219;-85
2022/07/18 07:12:30;;;;;;;;;;;;;;;17.44;100.00;101799.78;5028591;28;20670;-84
2022/07/18 07:15:04;;;;;;;;;;;;;;;17.63;100.00;101792.31;5029196;28;20498;-85
2022/07/18 07:17:37;;;;;;;;;;;;;;;17.82;100.00;101792.28;5020192;28;19933;-84
2022/07/18 07:20:07;;;;;;;;;;;;;;;18.09;100.00;101792.66;5017178;28;19932;-87
2022/07/18 07:22:43;;;;;;;;;;;;;;;18.43;100.00;101791.47;5019097;28;19975;-84
2022/07/18 07:25:11;;;;;;;;;;;;;;;18.66;100.00;101793.19;5023436;28;19944;-83
2022/07/18 07:27:40;;;;;;;;;;;;;;;18.85;100.00;101784.81;5023803;28;19932;-84
2022/07/18 07:30:10;;;;;;;;;;;;;;;18.94;100.00;101790.44;5030386;28;19932;-85
2022/07/18 07:32:44;;;;;;;;;;;;;;;19.03;100.00;101788.56;5022764;28;20752;-85
2022/07/18 07:35:18;;;;;;;;;;;;;;;19.15;100.00;101784.44;5018658;28;19928;-85
2022/07/18 07:37:46;;;;;;;;;;;;;;;19.14;100.00;101788.31;5019288;28;19933;-82
2022/07/18 07:40:15;;;;;;;;;;;;;;;19.18;100.00;101784.66;5022780;28;19939;-84
2022/07/18 07:42:48;;;;;;;;;;;;;;;19.28;100.00;101791.03;5018425;28;20621;-84
2022/07/18 07:45:22;;;;;;;;;;;;;;;19.56;100.00;101780.72;5022988;28;19932;-85
2022/07/18 07:47:50;;;;;;;;;;;;;;;19.59;100.00;101784.78;5032009;28;19940;-85
2022/07/18 07:50:23;;;;;;;;;;;;;;;19.89;100.00;101786.00;5023720;28;19935;-83
2022/07/18 07:52:56;;;;;;;;;;;;;;;20.01;100.00;101779.84;5020225;28;20543;-83
2022/07/18 07:55:25;;;;;;;;;;;;;;;20.11;100.00;101784.31;5017806;28;19929;-83
2022/07/18 07:57:53;;;;;;;;;;;;;;;20.30;100.00;101790.41;5021324;28;19968;-85
2022/07/18 08:00:28;;;;;;;;;;;;;;;20.33;100.00;101778.72;5019986;28;19933;-86
2022/07/18 08:03:02;;;;;;;;;;;;;;;20.29;100.00;101777.72;5023120;28;19933;-86
2022/07/18 08:05:31;;;;;;;;;;;;;;;20.27;100.00;101768.91;5028294;28;20015;-85
2022/07/18 08:08:00;;;;;;;;;;;;;;;20.52;100.00;101775.69;5026205;28;19932;-85
2022/07/18 08:10:28;;;;;;;;;;;;;;;20.49;100.00;101769.97;5022732;28;19940;-84
2022/07/18 08:13:01;;;;;;;;;;;;;;;20.66;100.00;101764.50;5025957;28;19932;-83
2022/07/18 08:15:36;;;;;;;;;;;;;;;20.78;100.00;101766.63;5021118;28;21365;-84
2022/07/18 08:18:09;;;;;;;;;;;;;;;21.06;100.00;101753.34;5015348;28;20281;-84
2022/07/18 08:20:42;;;;;;;;;;;;;;;21.26;100.00;101745.50;5018436;28;19947;-85
2022/07/18 08:23:11;;;;;;;;;;;;;;;21.23;100.00;101740.63;5025529;28;19929;-84
2022/07/18 08:25:41;;;;;;;;;;;;;;;21.26;100.00;101741.94;5022579;28;21368;-83
2022/07/18 08:28:09;;;;;;;;;;;;;;;21.24;100.00;101745.84;5026507;28;19998;-84
2022/07/18 08:30:43;;;;;;;;;;;;;;;21.32;100.00;101738.69;5019658;28;19933;-83
2022/07/18 08:33:16;;;;;;;;;;;;;;;21.41;100.00;101738.66;5030020;28;19929;-83
2022/07/18 08:35:49;;;;;;;;;;;;;;;21.50;100.00;101735.88;5028708;28;19940;-85
2022/07/18 08:38:22;;;;;;;;;;;;;;;21.34;100.00;101735.56;5022777;28;19940;-85
2022/07/18 08:40:55;;;;;;;;;;;;;;;21.24;100.00;101740.31;5026599;28;19933;-86
2022/07/18 08:43:25;;;;;;;;;;;;;;;21.28;100.00;101740.47;5022496;28;20594;-86
2022/07/18 08:45:56;;;;;;;;;;;;;;;21.16;100.00;101749.41;5024251;28;20698;-84
2022/07/18 08:48:29;;;;;;;;;;;;;;;21.20;100.00;101749.59;5023643;28;19932;-84
2022/07/18 08:51:02;;;;;;;;;;;;;;;21.17;100.00;101747.47;5024626;28;20447;-84
2022/07/18 08:53:37;;;;;;;;;;;;;;;21.22;100.00;101750.88;5028940;28;19936;-84
2022/07/18 08:56:10;;;;;;;;;;;;;;;21.29;100.00;101738.50;5019990;28;20309;-84
2022/07/18 08:58:43;;;;;;;;;;;;;;;21.39;100.00;101740.94;5024395;28;19933;-85
2022/07/18 09:01:17;;;;;;;;;;;;;;;21.55;100.00;101738.50;5017014;28;19958;-85
2022/07/18 09:04:14;;;;;;;;;;;;;;;21.69;100.00;101730.78;5011167;28;20774;-84
2022/07/18 09:06:44;;;;;;;;;;;;;;;21.93;100.00;101726.66;5017242;28;19956;-85
2022/07/18 09:09:17;;;;;;;;;;;;;;;22.22;100.00;101731.41;5015776;28;19933;-84
2022/07/18 09:11:54;;;;;;;;;;;;;;;22.35;100.00;101723.22;5014791;28;19933;-84
2022/07/18 09:14:29;;;;;;;;;;;;;;;22.50;100.00;101721.84;5013092;28;20282;-85
2022/07/18 09:17:05;;;;;;;;;;;;;;;22.72;100.00;101709.59;5027174;28;20649;-84
2022/07/18 09:19:33;;;;;;;;;;;;;;;22.85;98.50;101711.28;5019492;28;19932;-85
2022/07/18 09:22:17;;;;;;;;;;;;;;;23.01;93.16;101707.91;5013121;28;19987;-84
2022/07/18 09:24:56;;;;;;;;;;;;;;;23.04;100.00;101710.78;5016755;28;19928;-85
2022/07/18 09:27:29;;;;;;;;;;;;;;;23.14;100.00;101711.56;5022457;28;19937;-86
2022/07/18 09:30:16;;;;;;;;;;;;;;;23.17;94.50;101703.34;5023771;28;20178;-85
2022/07/18 09:32:52;;;;;;;;;;;;;;;23.17;100.00;101711.66;5021925;28;20396;-85
2022/07/18 09:35:26;;;;;;;;;;;;;;;23.12;97.04;101705.50;5019259;28;19940;-84
2022/07/18 09:38:01;;;;;;;;;;;;;;;22.97;92.92;101698.63;5027306;28;19933;-84
2022/07/18 09:40:35;;;;;;;;;;;;;;;22.74;94.21;101704.50;5019825;28;19959;-85
2022/07/18 09:43:08;;;;;;;;;;;;;;;22.77;88.38;101701.06;5010479;28;19933;-85
2022/07/18 09:45:43;;;;;;;;;;;;;;;22.89;90.40;101700.31;5015937;28;19944;-86
2022/07/18 09:48:19;;;;;;;;;;;;;;;23.03;100.00;101692.50;5013349;28;19936;-84
2022/07/18 09:50:51;;;;;;;;;;;;;;;23.08;91.63;101697.84;5021564;28;19933;-85
2022/07/18 09:53:25;;;;;;;;;;;;;;;23.15;92.15;101710.41;5014094;28;19933;-84
2022/07/18 09:55:53;;;;;;;;;;;;;;;23.07;99.24;101698.19;5011035;28;19933;-85
2022/07/18 09:58:27;;;;;;;;;;;;;;;23.16;95.53;101696.19;5009818;28;19933;-85
2022/07/18 10:01:01;;;;;;;;;;;;;;;23.06;99.44;101700.16;5011521;28;20468;-84
2022/07/18 10:03:30;;;;;;;;;;;;;;;23.17;100.00;101702.53;5041665;28;19940;-84
2022/07/18 10:06:04;;;;;;;;;;;;;;;23.15;89.80;101707.63;5024558;28;19933;-85
2022/07/18 10:08:37;;;;;;;;;;;;;;;23.24;98.77;101714.72;5030060;28;19940;-85
2022/07/18 10:11:06;;;;;;;;;;;;;;;23.34;100.00;101713.50;5025353;28;19932;-85
2022/07/18 10:13:35;;;;;;;;;;;;;;;23.41;95.86;101716.50;5024718;28;19932;-84
2022/07/18 10:16:08;;;;;;;;;;;;;;;23.47;93.42;101717.09;5022598;28;19933;-84
2022/07/18 10:18:42;;;;;;;;;;;;;;;23.55;92.62;101718.19;5026317;28;19933;-85
2022/07/18 10:21:19;;;;;;;;;;;;;;;23.59;89.04;101719.91;5012811;28;19933;-85
2022/07/18 10:23:48;;;;;;;;;;;;;;;23.76;90.95;101716.13;5014700;28;19932;-85
2022/07/18 10:26:19;;;;;;;;;;;;;;;23.90;87.01;101715.00;5014231;28;19940;-85
2022/07/18 10:29:25;;;;;;;;;;;;;;;24.01;93.63;101716.16;5008912;28;20389;-84
2022/07/18 10:32:03;;;;;;;;;;;;;;;24.07;88.02;101723.13;4930880;28;19933;-85
2022/07/18 10:34:39;;;;;;;;;;;;;;;24.24;84.81;101719.31;4936987;28;19941;-85
2022/07/18 10:37:12;;;;;;;;;;;;;;;24.24;79.26;101724.06;4987318;28;20050;-85
2022/07/18 10:39:46;;;;;;;;;;;;;;;24.17;78.32;101726.59;5020302;28;19933;-85
2022/07/18 10:42:24;;;;;;;;;;;;;;;24.22;81.99;101724.41;5023029;28;20476;-84
2022/07/18 10:44:52;;;;;;;;;;;;;;;24.57;74.79;101717.53;5017548;28;19953;-84
2022/07/18 10:47:29;;;;;;;;;;;;;;;24.92;77.80;101720.59;5014607;28;19950;-84
2022/07/18 10:50:08;;;;;;;;;;;;;;;24.96;76.71;101704.78;5017117;28;19936;-87
2022/07/18 10:53:10;;;;;;;6.57;3.45;;;;;;;24.91;87.54;101702.28;5020011;28;19935;-84
2022/07/18 10:55:48;;;;;;;7.43;3.25;;;;;;;24.83;72.09;101703.25;5022407;28;20053;-85
2022/07/18 10:58:20;;;;;;;7.10;3.22;;;;;;;24.77;77.10;101696.28;5030470;28;20049;-84
2022/07/18 11:01:01;;;;;;;8.77;3.58;;;;;;;24.94;81.88;101681.25;5020084;28;20065;-84
2022/07/18 11:03:29;;;;;;;7.00;3.70;;;;;;;24.88;80.23;101688.25;5020047;28;20068;-83
2022/07/18 11:06:04;;;;;;;6.70;3.00;;;;;;;24.96;66.94;101676.94;5013560;28;20310;-83
2022/07/18 11:08:33;;;;;;;6.45;3.40;;;;;;;24.94;74.87;101682.06;5014458;28;20718;-83
2022/07/18 11:11:08;;;;;;;5.75;3.03;;;;;;;24.85;79.88;101672.25;5020848;28;20063;-84
2022/07/18 11:13:48;;;;;;;4.75;2.80;;;;;;;24.90;80.95;101675.59;5025101;28;21021;-84
2022/07/18 11:16:24;;;;;;;7.30;3.80;;;;;;;24.70;72.96;101663.47;5027906;28;20064;-84
2022/07/18 11:19:20;;;;;;;5.97;3.23;;;;;;;24.65;84.48;101668.50;5023650;28;20941;-84
2022/07/18 11:21:59;;;;;;;7.72;3.45;;;;;;;24.40;74.67;101661.00;5013300;28;20303;-84
2022/07/18 11:24:28;;;;;;;5.80;3.53;;;;;;;24.31;85.60;101679.78;5007861;28;20068;-84
2022/07/18 11:26:57;;;;;;;6.90;3.40;;;;;;;24.16;70.96;101664.63;5010170;28;20854;-84
2022/07/18 11:29:41;;;;;;;5.63;3.22;;;;;;;24.04;72.31;101654.34;5012503;28;20052;-84
2022/07/18 11:32:21;;;;;;;6.43;3.22;;;;;;;24.09;85.92;101669.97;5010441;28;20044;-85
2022/07/18 11:34:54;;;;;;;6.43;3.50;;;;;;;24.17;89.18;101652.34;5014406;28;20068;-86
2022/07/18 11:37:29;;;;;;;6.72;3.58;;;;;;;24.29;78.35;101659.84;5015157;28;20508;-86
2022/07/18 11:40:06;;;;;;;6.60;3.53;;;;;;;24.36;80.25;101668.41;5020573;28;20413;-85
2022/07/18 11:42:40;;;;;;;7.43;3.33;;;;;;;24.49;85.04;101654.50;5013765;28;20061;-84
2022/07/18 11:45:11;;;;;;;7.45;3.85;;;;;;;24.40;64.44;101655.44;5009696;28;20064;-85
2022/07/18 11:47:40;;;;;;;7.47;3.63;;;;;;;24.43;67.63;101653.91;5012701;28;20052;-86
2022/07/18 11:50:13;;;;;;;9.18;4.30;;;;;;;24.44;73.94;101653.56;5020788;28;20052;-86
2022/07/18 11:52:43;;;;;;;9.57;3.63;;;;;;;24.32;83.03;101652.75;5021553;28;20062;-88
2022/07/18 11:55:13;;;;;;;7.95;3.92;;;;;;;24.39;79.84;101656.59;5019764;28;20056;-84
2022/07/18 11:57:46;;;;;;;7.22;3.67;;;;;;;24.39;72.57;101647.44;5024573;28;20414;-85
2022/07/18 12:00:16;;;;;;;11.00;3.70;;;;;;;24.51;68.21;101643.81;5022280;28;20049;-84
2022/07/18 12:02:50;;;;;;;6.47;3.33;;;;;;;24.58;81.73;101642.06;5018900;28;20049;-84
2022/07/18 12:05:31;;;;;;;6.97;3.50;;;;;;;24.57;78.05;101626.50;5024056;28;20053;-84
2022/07/18 12:08:01;;;;;;;7.60;3.83;;;;;;;24.73;69.34;101623.00;5023573;28;20057;-85
2022/07/18 12:10:34;;;;;;;6.97;3.88;;;;;;;24.75;72.97;101615.13;5022889;28;20053;-85
2022/07/18 12:13:08;;;;;;;12.63;3.95;;;;;;;24.65;73.10;101596.13;5024307;28;20057;-84
2022/07/18 12:15:42;;;;;;;7.13;3.45;;;;;;;24.80;72.67;101609.28;5016516;28;20060;-85
2022/07/18 12:18:29;;;;;;;7.35;3.40;;;;;;;24.78;74.44;101609.63;5022279;28;20056;-83
2022/07/18 12:21:09;;;;;;;5.95;3.50;;;;;;;24.82;77.94;101615.31;5017037;28;20061;-84
2022/07/18 12:23:43;;;;;;;8.52;3.53;;;;;;;24.91;70.23;101618.75;5011497;28;20049;-85
2022/07/18 12:26:31;;;;;;;6.07;3.28;;;;;;;24.93;66.84;101618.41;5027131;28;20064;-87
2022/07/18 12:29:06;;;;;;;7.63;3.80;;;;;;;24.99;67.10;101608.59;5028727;28;20075;-83
2022/07/18 12:31:42;;;;;;;5.38;3.00;;;;;;;25.25;71.36;101601.72;5023072;28;21078;-82
2022/07/18 12:34:16;;;;;;;6.22;2.88;;;;;;;25.35;69.69;101592.06;5027307;28;20044;-81
2022/07/18 12:36:54;;;;;;;7.30;3.28;;;;;;;25.44;77.54;101585.13;5019969;28;20689;-81
2022/07/18 12:39:31;;;;;;;7.13;3.38;;;;;;;25.57;71.92;101585.03;5026445;28;20036;-82
2022/07/18 12:42:07;;;;;;;7.15;3.45;;;;;;;25.60;77.23;101585.13;5019873;28;20949;-81
2022/07/18 12:44:40;;;;;;;7.70;4.75;;;;;;;25.28;67.22;101579.50;5019822;28;20056;-81
2022/07/18 12:47:08;;;;;;;5.97;3.03;;;;;;;25.34;78.27;101598.78;5017926;28;20052;-80
2022/07/18 12:49:42;;;;;;;11.27;6.95;;;;;;;25.27;71.21;101586.28;5019496;28;20067;-81